Ana Sayfa
METAR-TAF:

METAR-TAF

Havaalanları :

Fort Richardson, Alaska, Amerika Birleşik Devletleri

Enlem: 61-15-45N, Boylam: 149-39-17W, yükseklik: 115 m

Güncel hava durumu gözlemi

Rapor saat 20:55 UTC de 59 dakika önce yapıldı.
Rüzgar kuzey/kuzeybatıdan 3 kt
Sıcaklık 9°C
Nem 43%
Basınç 1012 hPa
Görüş mesafesi: 14.5 km
21000 ft yükseklikte az bulutlu

METAR: PAFR 202055Z AUTO 33003KT 9SM FEW210 09/M03 A2989 RMK AO2 SLP130 T00851031 57012 $

Saat: 13:54 (21:54 UTC)


TAF: eksik

4.000'den fazla havaalanı için hava durumu gözlemleri ve tahminleri (METAR ve TAF raporları).

Kullanılabilir istasyonlar harita üzerinde sarı ve kırmızı noktalarla gösterilir.

İstasyonun adını görmek için fareyi noktanın üzerinde gezdirin.

Sonrasında hava gözlem ve tahminlerini görmek için tıklayın.

Haritayı değiştirmek için: yaklaştırmak için siyah artı işaretli yeşil düğmeye ve uzaklaştırmak için de eksi işaretli düğmeye hızla tıklayın; bitişik haritalar için yeşil okları kullanın.


METAR-TAF: